sensor_id;sensor_type;location;lat;lon;timestamp;pressure;altitude;pressure_sealevel;temperature;humidity
60099;BME280;62818;49.394;8.686;2023-08-24T00:00:22;100468.63;;;22.37;80.31
60099;BME280;62818;49.394;8.686;2023-08-24T00:01:23;100457.34;;;22.40;79.74
60099;BME280;62818;49.394;8.686;2023-08-24T00:02:23;100460.41;;;22.27;79.65
60099;BME280;62818;49.394;8.686;2023-08-24T00:03:24;100459.63;;;22.69;79.46
60099;BME280;62818;49.394;8.686;2023-08-24T00:04:24;100464.69;;;22.88;77.20
60099;BME280;62818;49.394;8.686;2023-08-24T00:05:24;100460.38;;;22.65;79.23
60099;BME280;62818;49.394;8.686;2023-08-24T00:06:25;100453.28;;;23.07;77.59
60099;BME280;62818;49.394;8.686;2023-08-24T00:07:25;100451.03;;;23.26;77.04
60099;BME280;62818;49.394;8.686;2023-08-24T00:08:26;100449.81;;;22.85;78.45
60099;BME280;62818;49.394;8.686;2023-08-24T00:09:27;100453.97;;;23.19;77.31
60099;BME280;62818;49.394;8.686;2023-08-24T00:10:27;100452.03;;;22.66;78.21
60099;BME280;62818;49.394;8.686;2023-08-24T00:11:28;100449.06;;;22.68;77.90
60099;BME280;62818;49.394;8.686;2023-08-24T00:12:28;100445.16;;;22.59;78.45
60099;BME280;62818;49.394;8.686;2023-08-24T00:13:29;100448.94;;;22.79;76.71
60099;BME280;62818;49.394;8.686;2023-08-24T00:14:30;100452.03;;;22.06;79.60
60099;BME280;62818;49.394;8.686;2023-08-24T00:15:30;100458.91;;;22.57;78.39
60099;BME280;62818;49.394;8.686;2023-08-24T00:16:31;100458.09;;;22.57;77.76
60099;BME280;62818;49.394;8.686;2023-08-24T00:17:31;100449.06;;;22.68;78.02
60099;BME280;62818;49.394;8.686;2023-08-24T00:18:32;100446.16;;;22.53;77.61
60099;BME280;62818;49.394;8.686;2023-08-24T00:19:33;100448.97;;;22.41;78.27
60099;BME280;62818;49.394;8.686;2023-08-24T00:20:33;100432.84;;;22.46;78.55
60099;BME280;62818;49.394;8.686;2023-08-24T00:21:34;100438.53;;;22.06;81.73
60099;BME280;62818;49.394;8.686;2023-08-24T00:22:35;100437.34;;;22.41;78.99
60099;BME280;62818;49.394;8.686;2023-08-24T00:23:35;100437.72;;;22.28;79.87
60099;BME280;62818;49.394;8.686;2023-08-24T00:24:35;100436.66;;;22.50;78.32
60099;BME280;62818;49.394;8.686;2023-08-24T00:25:36;100438.94;;;22.37;78.74
60099;BME280;62818;49.394;8.686;2023-08-24T00:26:36;100442.81;;;22.46;78.89
60099;BME280;62818;49.394;8.686;2023-08-24T00:27:37;100437.91;;;22.43;79.15
60099;BME280;62818;49.394;8.686;2023-08-24T00:28:38;100436.69;;;22.72;79.40
60099;BME280;62818;49.394;8.686;2023-08-24T00:29:38;100426.72;;;22.99;77.25
60099;BME280;62818;49.394;8.686;2023-08-24T00:30:39;100433.59;;;22.85;76.86
60099;BME280;62818;49.394;8.686;2023-08-24T00:31:39;100428.56;;;22.29;79.21
60099;BME280;62818;49.394;8.686;2023-08-24T00:32:40;100424.38;;;22.38;78.89
60099;BME280;62818;49.394;8.686;2023-08-24T00:33:40;100424.94;;;22.40;79.17
60099;BME280;62818;49.394;8.686;2023-08-24T00:34:41;100408.53;;;22.68;77.73
60099;BME280;62818;49.394;8.686;2023-08-24T00:35:41;100413.69;;;22.69;76.27
60099;BME280;62818;49.394;8.686;2023-08-24T00:36:42;100416.19;;;22.76;76.00
60099;BME280;62818;49.394;8.686;2023-08-24T00:37:42;100414.16;;;22.88;73.95
60099;BME280;62818;49.394;8.686;2023-08-24T00:38:43;100407.63;;;23.11;72.58
60099;BME280;62818;49.394;8.686;2023-08-24T00:39:43;100417.56;;;23.05;73.62
60099;BME280;62818;49.394;8.686;2023-08-24T00:40:44;100415.00;;;22.89;75.42
60099;BME280;62818;49.394;8.686;2023-08-24T00:41:44;100414.63;;;22.80;75.74
60099;BME280;62818;49.394;8.686;2023-08-24T00:42:45;100408.91;;;22.55;77.19
60099;BME280;62818;49.394;8.686;2023-08-24T00:43:46;100407.16;;;22.65;76.88
60099;BME280;62818;49.394;8.686;2023-08-24T00:44:46;100402.72;;;22.81;75.71
60099;BME280;62818;49.394;8.686;2023-08-24T00:45:47;100405.59;;;22.96;74.29
60099;BME280;62818;49.394;8.686;2023-08-24T00:46:48;100415.53;;;23.17;73.15
60099;BME280;62818;49.394;8.686;2023-08-24T00:47:48;100418.47;;;23.42;70.69
60099;BME280;62818;49.394;8.686;2023-08-24T00:48:49;100414.16;;;23.46;71.10
60099;BME280;62818;49.394;8.686;2023-08-24T00:49:52;100427.63;;;23.68;68.51
60099;BME280;62818;49.394;8.686;2023-08-24T00:50:52;100426.25;;;23.71;68.86
60099;BME280;62818;49.394;8.686;2023-08-24T00:51:53;100435.16;;;23.66;67.69
60099;BME280;62818;49.394;8.686;2023-08-24T00:52:54;100431.34;;;23.30;70.75
60099;BME280;62818;49.394;8.686;2023-08-24T00:53:55;100441.13;;;22.83;74.33
60099;BME280;62818;49.394;8.686;2023-08-24T00:54:58;100447.16;;;22.90;74.27
60099;BME280;62818;49.394;8.686;2023-08-24T00:55:59;100454.09;;;22.81;74.57
60099;BME280;62818;49.394;8.686;2023-08-24T00:57:00;100460.91;;;22.62;75.40
60099;BME280;62818;49.394;8.686;2023-08-24T00:58:02;100465.16;;;22.58;76.11
60099;BME280;62818;49.394;8.686;2023-08-24T00:59:03;100468.25;;;22.50;76.58
60099;BME280;62818;49.394;8.686;2023-08-24T01:00:05;100468.91;;;22.57;75.61
60099;BME280;62818;49.394;8.686;2023-08-24T01:01:10;100473.13;;;22.69;74.67
60099;BME280;62818;49.394;8.686;2023-08-24T01:02:10;100459.06;;;22.67;75.22
60099;BME280;62818;49.394;8.686;2023-08-24T01:03:11;100462.31;;;22.69;74.96
60099;BME280;62818;49.394;8.686;2023-08-24T01:04:12;100461.31;;;23.02;72.77
60099;BME280;62818;49.394;8.686;2023-08-24T01:05:13;100467.28;;;22.56;76.06
60099;BME280;62818;49.394;8.686;2023-08-24T01:06:14;100464.28;;;22.74;76.77
60099;BME280;62818;49.394;8.686;2023-08-24T01:07:15;100462.19;;;22.81;75.66
60099;BME280;62818;49.394;8.686;2023-08-24T01:08:17;100473.66;;;22.50;77.68
60099;BME280;62818;49.394;8.686;2023-08-24T01:09:20;100472.84;;;22.66;78.06
60099;BME280;62818;49.394;8.686;2023-08-24T01:10:22;100469.47;;;22.80;75.50
60099;BME280;62818;49.394;8.686;2023-08-24T01:14:11;100468.25;;;22.50;77.50
60099;BME280;62818;49.394;8.686;2023-08-24T01:15:27;100464.25;;;22.31;80.04
60099;BME280;62818;49.394;8.686;2023-08-24T01:16:38;100451.31;;;22.76;78.58
60099;BME280;62818;49.394;8.686;2023-08-24T01:17:43;100453.81;;;23.04;76.78
60099;BME280;62818;49.394;8.686;2023-08-24T01:18:44;100446.75;;;23.30;75.89
60099;BME280;62818;49.394;8.686;2023-08-24T01:19:45;100458.34;;;23.25;74.39
60099;BME280;62818;49.394;8.686;2023-08-24T01:20:47;100455.91;;;23.02;75.38
60099;BME280;62818;49.394;8.686;2023-08-24T01:21:49;100468.84;;;22.52;77.09
60099;BME280;62818;49.394;8.686;2023-08-24T01:23:14;100461.81;;;22.12;79.78
60099;BME280;62818;49.394;8.686;2023-08-24T01:24:34;100461.69;;;22.02;79.44
60099;BME280;62818;49.394;8.686;2023-08-24T01:25:46;100464.44;;;22.07;79.08
60099;BME280;62818;49.394;8.686;2023-08-24T01:26:52;100458.91;;;22.36;78.17
60099;BME280;62818;49.394;8.686;2023-08-24T01:27:55;100462.78;;;22.23;78.61
60099;BME280;62818;49.394;8.686;2023-08-24T01:28:56;100465.31;;;21.91;80.30
60099;BME280;62818;49.394;8.686;2023-08-24T01:29:57;100462.66;;;21.96;80.91
60099;BME280;62818;49.394;8.686;2023-08-24T01:30:59;100449.03;;;21.86;81.40
60099;BME280;62818;49.394;8.686;2023-08-24T01:32:00;100451.97;;;21.68;82.61
60099;BME280;62818;49.394;8.686;2023-08-24T01:33:03;100449.78;;;21.65;82.97
60099;BME280;62818;49.394;8.686;2023-08-24T01:34:05;100455.03;;;22.10;82.14
60099;BME280;62818;49.394;8.686;2023-08-24T01:35:07;100452.44;;;21.82;82.10
60099;BME280;62818;49.394;8.686;2023-08-24T01:36:11;100459.66;;;21.76;83.48
60099;BME280;62818;49.394;8.686;2023-08-24T01:37:13;100460.22;;;21.95;82.46
60099;BME280;62818;49.394;8.686;2023-08-24T01:38:14;100455.34;;;21.59;83.41
60099;BME280;62818;49.394;8.686;2023-08-24T01:39:25;100447.22;;;21.42;84.86
60099;BME280;62818;49.394;8.686;2023-08-24T01:41:02;100451.56;;;21.43;84.71
60099;BME280;62818;49.394;8.686;2023-08-24T01:42:26;100454.84;;;21.45;84.33
60099;BME280;62818;49.394;8.686;2023-08-24T01:43:32;100445.50;;;21.36;85.12
60099;BME280;62818;49.394;8.686;2023-08-24T01:44:37;100439.44;;;21.29;85.88
60099;BME280;62818;49.394;8.686;2023-08-24T01:45:42;100446.38;;;21.25;86.94
60099;BME280;62818;49.394;8.686;2023-08-24T01:46:45;100443.44;;;21.10;87.87
60099;BME280;62818;49.394;8.686;2023-08-24T01:47:48;100436.97;;;21.11;87.62
60099;BME280;62818;49.394;8.686;2023-08-24T01:48:51;100443.53;;;21.15;88.05
60099;BME280;62818;49.394;8.686;2023-08-24T01:49:54;100440.91;;;21.20;87.85
60099;BME280;62818;49.394;8.686;2023-08-24T01:50:56;100445.16;;;21.16;87.49
60099;BME280;62818;49.394;8.686;2023-08-24T01:51:58;100440.06;;;21.19;87.53
60099;BME280;62818;49.394;8.686;2023-08-24T01:53:00;100443.84;;;21.18;87.28
60099;BME280;62818;49.394;8.686;2023-08-24T01:54:02;100446.13;;;21.10;88.04
60099;BME280;62818;49.394;8.686;2023-08-24T01:55:03;100436.97;;;21.11;88.49
60099;BME280;62818;49.394;8.686;2023-08-24T01:56:13;100441.41;;;21.17;88.57
60099;BME280;62818;49.394;8.686;2023-08-24T01:57:15;100444.53;;;21.42;87.95
60099;BME280;62818;49.394;8.686;2023-08-24T01:58:16;100440.09;;;21.36;86.96
60099;BME280;62818;49.394;8.686;2023-08-24T01:59:17;100437.06;;;21.16;87.89
60099;BME280;62818;49.394;8.686;2023-08-24T02:00:17;100441.16;;;21.18;88.66
60099;BME280;62818;49.394;8.686;2023-08-24T02:01:18;100442.81;;;21.36;89.11
60099;BME280;62818;49.394;8.686;2023-08-24T02:02:18;100439.78;;;21.66;86.84
60099;BME280;62818;49.394;8.686;2023-08-24T02:03:19;100446.16;;;21.43;87.91
60099;BME280;62818;49.394;8.686;2023-08-24T02:04:19;100438.78;;;21.22;89.03
60099;BME280;62818;49.394;8.686;2023-08-24T02:05:20;100436.06;;;21.22;90.30
60099;BME280;62818;49.394;8.686;2023-08-24T02:06:20;100435.44;;;21.15;90.71
60099;BME280;62818;49.394;8.686;2023-08-24T02:07:21;100444.53;;;21.59;88.54
60099;BME280;62818;49.394;8.686;2023-08-24T02:08:22;100449.25;;;21.35;87.66
60099;BME280;62818;49.394;8.686;2023-08-24T02:09:22;100445.59;;;21.41;88.35
60099;BME280;62818;49.394;8.686;2023-08-24T02:10:23;100449.97;;;22.13;85.77
60099;BME280;62818;49.394;8.686;2023-08-24T02:11:24;100452.97;;;22.17;84.87
60099;BME280;62818;49.394;8.686;2023-08-24T02:12:24;100452.16;;;22.17;83.95
60099;BME280;62818;49.394;8.686;2023-08-24T02:13:25;100441.22;;;22.06;85.14
60099;BME280;62818;49.394;8.686;2023-08-24T02:14:25;100446.00;;;22.21;84.91
60099;BME280;62818;49.394;8.686;2023-08-24T02:15:26;100445.53;;;22.46;84.06
60099;BME280;62818;49.394;8.686;2023-08-24T02:16:26;100447.63;;;22.00;84.67
60099;BME280;62818;49.394;8.686;2023-08-24T02:17:27;100445.91;;;21.94;85.91
60099;BME280;62818;49.394;8.686;2023-08-24T02:18:27;100450.81;;;21.64;86.50
60099;BME280;62818;49.394;8.686;2023-08-24T02:19:28;100453.44;;;21.76;86.91
60099;BME280;62818;49.394;8.686;2023-08-24T02:20:28;100445.16;;;22.16;85.31
60099;BME280;62818;49.394;8.686;2023-08-24T02:21:28;100439.59;;;22.05;84.42
60099;BME280;62818;49.394;8.686;2023-08-24T02:22:29;100443.78;;;21.96;85.72
60099;BME280;62818;49.394;8.686;2023-08-24T02:23:30;100430.72;;;21.72;87.76
60099;BME280;62818;49.394;8.686;2023-08-24T02:24:31;100441.09;;;21.30;89.86
60099;BME280;62818;49.394;8.686;2023-08-24T02:25:32;100434.06;;;21.46;90.56
60099;BME280;62818;49.394;8.686;2023-08-24T02:26:33;100435.28;;;21.88;86.55
60099;BME280;62818;49.394;8.686;2023-08-24T02:27:33;100429.66;;;21.89;86.53
60099;BME280;62818;49.394;8.686;2023-08-24T02:28:36;100437.09;;;21.32;89.20
60099;BME280;62818;49.394;8.686;2023-08-24T02:29:37;100435.38;;;21.76;88.54
60099;BME280;62818;49.394;8.686;2023-08-24T02:30:39;100435.22;;;21.83;86.44
60099;BME280;62818;49.394;8.686;2023-08-24T02:31:39;100438.97;;;21.49;89.15
60099;BME280;62818;49.394;8.686;2023-08-24T02:32:40;100445.25;;;22.26;85.93
60099;BME280;62818;49.394;8.686;2023-08-24T02:33:41;100435.19;;;22.38;85.22
60099;BME280;62818;49.394;8.686;2023-08-24T02:34:42;100437.31;;;21.97;86.34
60099;BME280;62818;49.394;8.686;2023-08-24T02:35:43;100432.13;;;21.41;88.57
60099;BME280;62818;49.394;8.686;2023-08-24T02:36:45;100431.25;;;21.24;91.97
60099;BME280;62818;49.394;8.686;2023-08-24T02:37:45;100425.88;;;21.90;88.52
60099;BME280;62818;49.394;8.686;2023-08-24T02:38:46;100437.31;;;21.97;87.93
60099;BME280;62818;49.394;8.686;2023-08-24T02:39:47;100425.97;;;21.29;91.07
60099;BME280;62818;49.394;8.686;2023-08-24T02:40:48;100427.84;;;21.12;93.45
60099;BME280;62818;49.394;8.686;2023-08-24T02:41:49;100433.41;;;21.38;93.31
60099;BME280;62818;49.394;8.686;2023-08-24T02:42:49;100427.94;;;21.83;89.24
60099;BME280;62818;49.394;8.686;2023-08-24T02:43:50;100428.19;;;21.65;91.24
60099;BME280;62818;49.394;8.686;2023-08-24T02:44:50;100429.81;;;21.33;92.78
60099;BME280;62818;49.394;8.686;2023-08-24T02:45:53;100433.25;;;21.78;90.58
60099;BME280;62818;49.394;8.686;2023-08-24T02:46:54;100420.66;;;21.84;87.93
60099;BME280;62818;49.394;8.686;2023-08-24T02:47:54;100421.56;;;21.23;91.94
60099;BME280;62818;49.394;8.686;2023-08-24T02:48:55;100424.34;;;21.28;94.07
60099;BME280;62818;49.394;8.686;2023-08-24T02:49:55;100416.88;;;21.18;93.55
60099;BME280;62818;49.394;8.686;2023-08-24T02:50:59;100423.75;;;21.26;93.61
60099;BME280;62818;49.394;8.686;2023-08-24T02:52:03;100418.84;;;21.73;90.50
60099;BME280;62818;49.394;8.686;2023-08-24T02:53:03;100412.91;;;21.21;93.55
60099;BME280;62818;49.394;8.686;2023-08-24T02:54:04;100413.31;;;21.29;94.34
60099;BME280;62818;49.394;8.686;2023-08-24T02:55:05;100417.41;;;21.32;94.19
60099;BME280;62818;49.394;8.686;2023-08-24T02:56:06;100413.53;;;21.61;92.81
60099;BME280;62818;49.394;8.686;2023-08-24T02:57:07;100409.88;;;22.05;89.35
60099;BME280;62818;49.394;8.686;2023-08-24T02:58:07;100412.56;;;21.67;89.59
60099;BME280;62818;49.394;8.686;2023-08-24T02:59:07;100417.06;;;21.45;92.49
60099;BME280;62818;49.394;8.686;2023-08-24T03:00:08;100415.81;;;22.02;89.75
60099;BME280;62818;49.394;8.686;2023-08-24T03:01:09;100409.75;;;21.95;89.62
60099;BME280;62818;49.394;8.686;2023-08-24T03:02:10;100403.41;;;21.35;92.72
60099;BME280;62818;49.394;8.686;2023-08-24T03:03:10;100404.78;;;21.71;91.91
60099;BME280;62818;49.394;8.686;2023-08-24T03:04:11;100403.06;;;22.20;89.04
60099;BME280;62818;49.394;8.686;2023-08-24T03:05:11;100403.97;;;21.04;93.81
60099;BME280;62818;49.394;8.686;2023-08-24T03:06:12;100391.00;;;20.89;97.60
60099;BME280;62818;49.394;8.686;2023-08-24T03:07:13;100396.31;;;21.12;96.28
60099;BME280;62818;49.394;8.686;2023-08-24T03:08:13;100391.50;;;20.86;98.65
60099;BME280;62818;49.394;8.686;2023-08-24T03:09:13;100388.97;;;20.80;99.14
60099;BME280;62818;49.394;8.686;2023-08-24T03:10:14;100383.22;;;21.54;94.27
60099;BME280;62818;49.394;8.686;2023-08-24T03:11:15;100383.69;;;20.73;97.68
60099;BME280;62818;49.394;8.686;2023-08-24T03:12:15;100384.31;;;20.92;98.91
60099;BME280;62818;49.394;8.686;2023-08-24T03:13:16;100394.50;;;21.51;95.54
60099;BME280;62818;49.394;8.686;2023-08-24T03:14:17;100387.81;;;21.54;93.29
60099;BME280;62818;49.394;8.686;2023-08-24T03:15:18;100389.06;;;21.01;96.34
60099;BME280;62818;49.394;8.686;2023-08-24T03:16:19;100392.69;;;21.07;97.32
60099;BME280;62818;49.394;8.686;2023-08-24T03:17:21;100395.41;;;20.79;99.71
60099;BME280;62818;49.394;8.686;2023-08-24T03:18:21;100396.63;;;21.49;96.16
60099;BME280;62818;49.394;8.686;2023-08-24T03:19:22;100389.44;;;21.38;94.25
60099;BME280;62818;49.394;8.686;2023-08-24T03:20:22;100391.25;;;20.88;97.75
60099;BME280;62818;49.394;8.686;2023-08-24T03:21:23;100395.50;;;21.45;96.26
60099;BME280;62818;49.394;8.686;2023-08-24T03:22:24;100397.09;;;21.46;92.97
60099;BME280;62818;49.394;8.686;2023-08-24T03:23:24;100396.91;;;21.03;96.87
60099;BME280;62818;49.394;8.686;2023-08-24T03:24:25;100403.81;;;21.60;94.48
60099;BME280;62818;49.394;8.686;2023-08-24T03:25:25;100395.25;;;21.63;92.45
60099;BME280;62818;49.394;8.686;2023-08-24T03:26:26;100405.13;;;21.08;95.43
60099;BME280;62818;49.394;8.686;2023-08-24T03:27:26;100414.38;;;21.45;95.76
60099;BME280;62818;49.394;8.686;2023-08-24T03:28:27;100405.63;;;21.38;94.77
60099;BME280;62818;49.394;8.686;2023-08-24T03:29:27;100407.41;;;21.16;96.12
60099;BME280;62818;49.394;8.686;2023-08-24T03:30:28;100403.03;;;20.98;98.51
60099;BME280;62818;49.394;8.686;2023-08-24T03:31:29;100399.25;;;21.61;95.33
60099;BME280;62818;49.394;8.686;2023-08-24T03:32:29;100395.31;;;21.35;95.22
60099;BME280;62818;49.394;8.686;2023-08-24T03:33:30;100390.00;;;21.07;98.55
60099;BME280;62818;49.394;8.686;2023-08-24T03:34:31;100389.03;;;21.46;96.51
60099;BME280;62818;49.394;8.686;2023-08-24T03:35:32;100377.84;;;21.21;97.12
60099;BME280;62818;49.394;8.686;2023-08-24T03:36:33;100371.88;;;20.74;99.90
60099;BME280;62818;49.394;8.686;2023-08-24T03:37:33;100377.09;;;20.81;100.00
60099;BME280;62818;49.394;8.686;2023-08-24T03:38:34;100367.72;;;21.00;97.66
60099;BME280;62818;49.394;8.686;2023-08-24T03:39:36;100357.44;;;20.52;99.87
60099;BME280;62818;49.394;8.686;2023-08-24T03:40:39;100358.81;;;20.66;100.00
60099;BME280;62818;49.394;8.686;2023-08-24T03:41:40;100357.22;;;20.98;100.00
60099;BME280;62818;49.394;8.686;2023-08-24T03:42:40;100351.53;;;21.45;95.65
60099;BME280;62818;49.394;8.686;2023-08-24T03:43:41;100343.34;;;21.56;91.88
60099;BME280;62818;49.394;8.686;2023-08-24T03:44:41;100341.72;;;21.05;93.26
60099;BME280;62818;49.394;8.686;2023-08-24T03:45:42;100332.50;;;21.18;95.34
60099;BME280;62818;49.394;8.686;2023-08-24T03:46:43;100315.19;;;21.14;93.35
60099;BME280;62818;49.394;8.686;2023-08-24T03:47:44;100320.53;;;20.81;95.15
60099;BME280;62818;49.394;8.686;2023-08-24T03:48:44;100303.81;;;21.28;95.01
60099;BME280;62818;49.394;8.686;2023-08-24T03:49:44;100295.19;;;21.48;93.10
60099;BME280;62818;49.394;8.686;2023-08-24T03:50:45;100288.31;;;21.19;93.98
60099;BME280;62818;49.394;8.686;2023-08-24T03:51:45;100285.56;;;21.52;93.32
60099;BME280;62818;49.394;8.686;2023-08-24T03:52:46;100266.97;;;21.34;94.06
60099;BME280;62818;49.394;8.686;2023-08-24T03:53:46;100266.66;;;21.14;94.40
60099;BME280;62818;49.394;8.686;2023-08-24T03:54:47;100267.22;;;21.16;92.55
60099;BME280;62818;49.394;8.686;2023-08-24T03:55:48;100262.31;;;21.29;91.20
60099;BME280;62818;49.394;8.686;2023-08-24T03:56:52;100249.56;;;21.25;89.92
60099;BME280;62818;49.394;8.686;2023-08-24T03:57:52;100248.63;;;22.49;73.81
60099;BME280;62818;49.394;8.686;2023-08-24T03:58:54;100257.75;;;23.38;65.79
60099;BME280;62818;49.394;8.686;2023-08-24T03:59:55;100258.97;;;23.68;62.95
60099;BME280;62818;49.394;8.686;2023-08-24T04:00:56;100251.66;;;23.63;63.16
60099;BME280;62818;49.394;8.686;2023-08-24T04:01:56;100246.25;;;23.63;63.26
60099;BME280;62818;49.394;8.686;2023-08-24T04:03:01;100244.13;;;23.70;61.89
60099;BME280;62818;49.394;8.686;2023-08-24T04:04:02;100250.56;;;23.64;62.03
60099;BME280;62818;49.394;8.686;2023-08-24T04:05:03;100256.63;;;23.81;61.58
60099;BME280;62818;49.394;8.686;2023-08-24T04:06:04;100250.41;;;23.86;60.84
60099;BME280;62818;49.394;8.686;2023-08-24T04:07:05;100261.22;;;23.91;60.60
60099;BME280;62818;49.394;8.686;2023-08-24T04:08:06;100272.06;;;23.86;60.59
60099;BME280;62818;49.394;8.686;2023-08-24T04:09:07;100261.72;;;23.73;61.53
60099;BME280;62818;49.394;8.686;2023-08-24T04:10:09;100277.41;;;23.76;61.00
60099;BME280;62818;49.394;8.686;2023-08-24T04:11:10;100288.25;;;23.76;60.76
60099;BME280;62818;49.394;8.686;2023-08-24T04:12:10;100277.53;;;24.01;59.39
60099;BME280;62818;49.394;8.686;2023-08-24T04:13:11;100281.78;;;23.82;60.13
60099;BME280;62818;49.394;8.686;2023-08-24T04:14:12;100270.69;;;23.83;60.26
60099;BME280;62818;49.394;8.686;2023-08-24T04:15:13;100261.78;;;23.93;59.77
60099;BME280;62818;49.394;8.686;2023-08-24T04:16:14;100281.84;;;23.97;60.09
60099;BME280;62818;49.394;8.686;2023-08-24T04:17:15;100267.94;;;23.73;62.24
60099;BME280;62818;49.394;8.686;2023-08-24T04:18:15;100277.38;;;23.66;62.96
60099;BME280;62818;49.394;8.686;2023-08-24T04:19:16;100288.06;;;23.40;65.13
60099;BME280;62818;49.394;8.686;2023-08-24T04:20:16;100254.69;;;23.82;61.12
60099;BME280;62818;49.394;8.686;2023-08-24T04:21:17;100261.34;;;24.16;59.33
60099;BME280;62818;49.394;8.686;2023-08-24T04:22:17;100271.50;;;23.89;62.70
60099;BME280;62818;49.394;8.686;2023-08-24T04:23:23;100273.69;;;23.87;61.76
60099;BME280;62818;49.394;8.686;2023-08-24T04:24:25;100281.94;;;24.22;59.91
60099;BME280;62818;49.394;8.686;2023-08-24T04:25:26;100277.09;;;24.29;59.48
60099;BME280;62818;49.394;8.686;2023-08-24T04:26:26;100268.72;;;24.46;58.03
60099;BME280;62818;49.394;8.686;2023-08-24T04:27:27;100265.19;;;24.40;58.21
60099;BME280;62818;49.394;8.686;2023-08-24T04:28:28;100273.84;;;24.27;58.73
60099;BME280;62818;49.394;8.686;2023-08-24T04:29:28;100289.50;;;24.15;60.25
60099;BME280;62818;49.394;8.686;2023-08-24T04:30:29;100268.38;;;24.17;60.61
60099;BME280;62818;49.394;8.686;2023-08-24T04:31:29;100264.63;;;24.33;59.06
60099;BME280;62818;49.394;8.686;2023-08-24T04:32:31;100290.13;;;24.32;58.95
60099;BME280;62818;49.394;8.686;2023-08-24T04:33:32;100292.28;;;24.50;58.22
60099;BME280;62818;49.394;8.686;2023-08-24T04:34:33;100292.09;;;24.82;56.47
60099;BME280;62818;49.394;8.686;2023-08-24T04:35:34;100280.13;;;24.58;57.29
60099;BME280;62818;49.394;8.686;2023-08-24T04:36:35;100292.56;;;24.49;57.51
60099;BME280;62818;49.394;8.686;2023-08-24T04:37:36;100287.94;;;24.39;57.71
60099;BME280;62818;49.394;8.686;2023-08-24T04:38:37;100304.22;;;24.44;57.96
60099;BME280;62818;49.394;8.686;2023-08-24T04:39:37;100285.25;;;24.44;57.86
60099;BME280;62818;49.394;8.686;2023-08-24T04:40:55;100294.47;;;24.53;58.38
60099;BME280;62818;49.394;8.686;2023-08-24T04:41:56;100306.06;;;24.28;59.42
60099;BME280;62818;49.394;8.686;2023-08-24T04:42:56;100278.03;;;23.93;61.98
60099;BME280;62818;49.394;8.686;2023-08-24T04:43:57;100294.56;;;23.08;67.61
60099;BME280;62818;49.394;8.686;2023-08-24T04:44:58;100290.59;;;22.57;71.69
60099;BME280;62818;49.394;8.686;2023-08-24T04:45:58;100300.16;;;22.43;72.75
60099;BME280;62818;49.394;8.686;2023-08-24T04:46:59;100299.06;;;22.65;72.20
60099;BME280;62818;49.394;8.686;2023-08-24T04:47:59;100292.00;;;22.59;72.41
60099;BME280;62818;49.394;8.686;2023-08-24T04:49:01;100291.41;;;22.84;70.37
60099;BME280;62818;49.394;8.686;2023-08-24T04:50:02;100296.44;;;23.07;69.28
60099;BME280;62818;49.394;8.686;2023-08-24T04:51:02;100305.78;;;22.90;70.90
60099;BME280;62818;49.394;8.686;2023-08-24T04:52:03;100300.13;;;22.91;70.92
60099;BME280;62818;49.394;8.686;2023-08-24T04:53:05;100296.16;;;22.72;71.60
60099;BME280;62818;49.394;8.686;2023-08-24T04:54:06;100293.38;;;22.62;72.18
60099;BME280;62818;49.394;8.686;2023-08-24T04:55:07;100285.81;;;22.64;72.25
60099;BME280;62818;49.394;8.686;2023-08-24T04:56:08;100294.00;;;22.69;72.84
60099;BME280;62818;49.394;8.686;2023-08-24T04:57:09;100308.00;;;22.66;72.49
60099;BME280;62818;49.394;8.686;2023-08-24T04:58:10;100306.41;;;22.70;73.49
60099;BME280;62818;49.394;8.686;2023-08-24T04:59:11;100304.25;;;22.72;74.01
60099;BME280;62818;49.394;8.686;2023-08-24T05:00:12;100303.25;;;22.30;75.51
60099;BME280;62818;49.394;8.686;2023-08-24T05:01:16;100303.72;;;22.22;76.50
60099;BME280;62818;49.394;8.686;2023-08-24T05:02:16;100302.31;;;22.41;76.54
60099;BME280;62818;49.394;8.686;2023-08-24T05:03:17;100301.72;;;22.60;75.37
60099;BME280;62818;49.394;8.686;2023-08-24T05:04:17;100311.59;;;22.76;74.56
60099;BME280;62818;49.394;8.686;2023-08-24T05:05:18;100301.31;;;22.47;75.66
60099;BME280;62818;49.394;8.686;2023-08-24T05:06:19;100304.91;;;22.31;75.55
60099;BME280;62818;49.394;8.686;2023-08-24T05:07:20;100311.81;;;22.22;76.97
60099;BME280;62818;49.394;8.686;2023-08-24T05:08:20;100316.38;;;22.16;80.60
60099;BME280;62818;49.394;8.686;2023-08-24T05:09:21;100314.47;;;22.38;78.60
60099;BME280;62818;49.394;8.686;2023-08-24T05:10:23;100313.22;;;22.51;77.69
60099;BME280;62818;49.394;8.686;2023-08-24T05:11:26;100310.22;;;22.21;79.40
60099;BME280;62818;49.394;8.686;2023-08-24T05:12:29;100313.25;;;22.07;79.72
60099;BME280;62818;49.394;8.686;2023-08-24T05:13:29;100312.72;;;22.27;78.26
60099;BME280;62818;49.394;8.686;2023-08-24T05:14:31;100308.72;;;22.35;76.69
60099;BME280;62818;49.394;8.686;2023-08-24T05:15:32;100304.03;;;22.25;78.61
60099;BME280;62818;49.394;8.686;2023-08-24T05:16:33;100314.72;;;22.15;76.96
60099;BME280;62818;49.394;8.686;2023-08-24T05:17:33;100308.63;;;22.25;78.61
60099;BME280;62818;49.394;8.686;2023-08-24T05:18:34;100299.41;;;22.47;78.68
60099;BME280;62818;49.394;8.686;2023-08-24T05:19:38;100293.84;;;22.85;76.86
60099;BME280;62818;49.394;8.686;2023-08-24T05:20:38;100303.22;;;22.78;75.62
60099;BME280;62818;49.394;8.686;2023-08-24T05:21:39;100306.91;;;22.40;79.44
60099;BME280;62818;49.394;8.686;2023-08-24T05:22:39;100311.38;;;22.30;78.95
60099;BME280;62818;49.394;8.686;2023-08-24T05:23:40;100306.47;;;22.75;77.31
60099;BME280;62818;49.394;8.686;2023-08-24T05:24:40;100306.34;;;22.17;79.75